sensor_id;sensor_type;location;lat;lon;timestamp;temperature;humidity
79439;DHT22;68889;48.232;10.110;2023-11-19T00:00:43;6.90;99.90
79439;DHT22;68889;48.232;10.110;2023-11-19T00:03:08;7.00;99.90
79439;DHT22;68889;48.232;10.110;2023-11-19T00:05:34;6.90;99.90
79439;DHT22;68889;48.232;10.110;2023-11-19T00:07:59;7.00;99.90
79439;DHT22;68889;48.232;10.110;2023-11-19T00:10:25;7.00;99.90
79439;DHT22;68889;48.232;10.110;2023-11-19T00:12:51;7.00;99.90
79439;DHT22;68889;48.232;10.110;2023-11-19T00:15:17;7.00;99.90
79439;DHT22;68889;48.232;10.110;2023-11-19T00:17:46;7.00;99.90
79439;DHT22;68889;48.232;10.110;2023-11-19T00:20:13;7.10;99.90
79439;DHT22;68889;48.232;10.110;2023-11-19T00:22:39;7.10;99.90
79439;DHT22;68889;48.232;10.110;2023-11-19T00:25:06;7.10;99.90
79439;DHT22;68889;48.232;10.110;2023-11-19T00:27:32;7.20;99.90
79439;DHT22;68889;48.232;10.110;2023-11-19T00:29:57;7.20;99.90
79439;DHT22;68889;48.232;10.110;2023-11-19T00:32:23;7.30;99.90
79439;DHT22;68889;48.232;10.110;2023-11-19T00:34:49;7.30;99.90
79439;DHT22;68889;48.232;10.110;2023-11-19T00:37:15;7.30;99.90
79439;DHT22;68889;48.232;10.110;2023-11-19T00:39:43;7.30;99.90
79439;DHT22;68889;48.232;10.110;2023-11-19T00:42:10;7.30;99.90
79439;DHT22;68889;48.232;10.110;2023-11-19T00:44:36;7.40;99.90
79439;DHT22;68889;48.232;10.110;2023-11-19T00:47:01;7.40;99.90
79439;DHT22;68889;48.232;10.110;2023-11-19T00:49:27;7.40;99.90
79439;DHT22;68889;48.232;10.110;2023-11-19T00:51:53;7.40;99.90
79439;DHT22;68889;48.232;10.110;2023-11-19T00:54:19;7.40;99.90
79439;DHT22;68889;48.232;10.110;2023-11-19T00:56:45;7.40;99.90
79439;DHT22;68889;48.232;10.110;2023-11-19T00:59:11;7.40;99.90
79439;DHT22;68889;48.232;10.110;2023-11-19T01:01:36;7.40;99.90
79439;DHT22;68889;48.232;10.110;2023-11-19T01:04:03;7.50;99.90
79439;DHT22;68889;48.232;10.110;2023-11-19T01:06:30;7.50;99.90
79439;DHT22;68889;48.232;10.110;2023-11-19T01:08:56;7.50;99.90
79439;DHT22;68889;48.232;10.110;2023-11-19T01:11:24;7.50;99.90
79439;DHT22;68889;48.232;10.110;2023-11-19T01:13:50;7.50;99.90
79439;DHT22;68889;48.232;10.110;2023-11-19T01:16:16;7.50;99.90
79439;DHT22;68889;48.232;10.110;2023-11-19T01:18:42;7.50;99.90
79439;DHT22;68889;48.232;10.110;2023-11-19T01:21:08;7.60;99.90
79439;DHT22;68889;48.232;10.110;2023-11-19T01:23:34;7.60;99.90
79439;DHT22;68889;48.232;10.110;2023-11-19T01:26:00;7.60;99.90
79439;DHT22;68889;48.232;10.110;2023-11-19T01:28:26;7.70;99.90
79439;DHT22;68889;48.232;10.110;2023-11-19T01:30:51;7.70;99.90
79439;DHT22;68889;48.232;10.110;2023-11-19T01:33:18;7.70;99.90
79439;DHT22;68889;48.232;10.110;2023-11-19T01:35:45;7.80;99.90
79439;DHT22;68889;48.232;10.110;2023-11-19T01:38:10;7.80;99.90
79439;DHT22;68889;48.232;10.110;2023-11-19T01:40:38;7.80;99.90
79439;DHT22;68889;48.232;10.110;2023-11-19T01:43:04;7.80;99.90
79439;DHT22;68889;48.232;10.110;2023-11-19T01:45:31;7.80;99.90
79439;DHT22;68889;48.232;10.110;2023-11-19T01:47:57;7.90;99.90
79439;DHT22;68889;48.232;10.110;2023-11-19T01:50:23;7.90;99.90
79439;DHT22;68889;48.232;10.110;2023-11-19T01:52:52;7.90;99.90
79439;DHT22;68889;48.232;10.110;2023-11-19T01:55:19;7.90;99.90
79439;DHT22;68889;48.232;10.110;2023-11-19T01:57:46;7.90;99.90
79439;DHT22;68889;48.232;10.110;2023-11-19T02:00:13;7.90;99.90
79439;DHT22;68889;48.232;10.110;2023-11-19T02:02:40;7.90;99.90
79439;DHT22;68889;48.232;10.110;2023-11-19T02:05:06;7.90;99.90
79439;DHT22;68889;48.232;10.110;2023-11-19T02:07:32;8.00;99.90
79439;DHT22;68889;48.232;10.110;2023-11-19T02:09:59;8.00;99.90
79439;DHT22;68889;48.232;10.110;2023-11-19T02:12:27;8.00;99.90
79439;DHT22;68889;48.232;10.110;2023-11-19T02:14:59;8.00;99.90
79439;DHT22;68889;48.232;10.110;2023-11-19T02:17:29;8.00;99.90
79439;DHT22;68889;48.232;10.110;2023-11-19T02:19:57;8.00;99.90
79439;DHT22;68889;48.232;10.110;2023-11-19T02:22:23;8.00;99.90
79439;DHT22;68889;48.232;10.110;2023-11-19T02:24:51;8.10;99.90
79439;DHT22;68889;48.232;10.110;2023-11-19T02:30:23;8.10;99.90
79439;DHT22;68889;48.232;10.110;2023-11-19T02:32:58;8.10;99.90
79439;DHT22;68889;48.232;10.110;2023-11-19T02:35:28;8.10;99.90
79439;DHT22;68889;48.232;10.110;2023-11-19T02:37:57;8.20;99.90
79439;DHT22;68889;48.232;10.110;2023-11-19T02:40:25;8.20;99.90
79439;DHT22;68889;48.232;10.110;2023-11-19T02:42:54;8.30;99.90
79439;DHT22;68889;48.232;10.110;2023-11-19T02:45:22;8.30;99.90
79439;DHT22;68889;48.232;10.110;2023-11-19T02:47:48;8.30;99.90
79439;DHT22;68889;48.232;10.110;2023-11-19T02:50:14;8.40;99.90
79439;DHT22;68889;48.232;10.110;2023-11-19T02:52:44;8.40;99.90
79439;DHT22;68889;48.232;10.110;2023-11-19T02:55:11;8.40;99.90
79439;DHT22;68889;48.232;10.110;2023-11-19T02:57:41;8.50;99.90
79439;DHT22;68889;48.232;10.110;2023-11-19T03:00:17;8.50;99.90
79439;DHT22;68889;48.232;10.110;2023-11-19T03:02:46;8.50;99.90
79439;DHT22;68889;48.232;10.110;2023-11-19T03:05:15;8.40;99.90
79439;DHT22;68889;48.232;10.110;2023-11-19T03:07:45;8.50;99.90
79439;DHT22;68889;48.232;10.110;2023-11-19T03:10:13;8.50;99.90
79439;DHT22;68889;48.232;10.110;2023-11-19T03:12:42;8.40;99.90
79439;DHT22;68889;48.232;10.110;2023-11-19T03:15:08;8.50;99.90
79439;DHT22;68889;48.232;10.110;2023-11-19T03:17:41;8.50;99.90
79439;DHT22;68889;48.232;10.110;2023-11-19T03:20:10;8.50;99.90
79439;DHT22;68889;48.232;10.110;2023-11-19T03:22:41;8.50;99.90
79439;DHT22;68889;48.232;10.110;2023-11-19T03:25:10;8.60;99.90
79439;DHT22;68889;48.232;10.110;2023-11-19T03:27:36;8.60;99.90
79439;DHT22;68889;48.232;10.110;2023-11-19T03:30:08;8.60;99.90
79439;DHT22;68889;48.232;10.110;2023-11-19T03:32:35;8.60;99.90
79439;DHT22;68889;48.232;10.110;2023-11-19T03:35:01;8.60;99.90
79439;DHT22;68889;48.232;10.110;2023-11-19T03:37:27;8.70;99.90
79439;DHT22;68889;48.232;10.110;2023-11-19T03:39:58;8.70;99.90
79439;DHT22;68889;48.232;10.110;2023-11-19T03:42:28;8.70;99.90
79439;DHT22;68889;48.232;10.110;2023-11-19T03:44:56;8.70;99.90
79439;DHT22;68889;48.232;10.110;2023-11-19T03:47:22;8.70;99.90
79439;DHT22;68889;48.232;10.110;2023-11-19T03:49:51;8.70;99.90
79439;DHT22;68889;48.232;10.110;2023-11-19T03:52:17;8.70;99.90
79439;DHT22;68889;48.232;10.110;2023-11-19T03:54:43;8.70;99.90
79439;DHT22;68889;48.232;10.110;2023-11-19T03:57:09;8.70;99.90
79439;DHT22;68889;48.232;10.110;2023-11-19T03:59:39;8.70;99.90
79439;DHT22;68889;48.232;10.110;2023-11-19T04:02:05;8.70;99.90
79439;DHT22;68889;48.232;10.110;2023-11-19T04:04:31;8.70;99.90
79439;DHT22;68889;48.232;10.110;2023-11-19T04:06:58;8.60;99.90
79439;DHT22;68889;48.232;10.110;2023-11-19T04:09:26;8.70;99.90
79439;DHT22;68889;48.232;10.110;2023-11-19T04:11:52;8.70;99.90
79439;DHT22;68889;48.232;10.110;2023-11-19T04:14:19;8.70;99.90
79439;DHT22;68889;48.232;10.110;2023-11-19T04:16:45;8.60;99.90
79439;DHT22;68889;48.232;10.110;2023-11-19T04:19:11;8.60;99.90
79439;DHT22;68889;48.232;10.110;2023-11-19T04:21:39;8.60;99.90
79439;DHT22;68889;48.232;10.110;2023-11-19T04:24:05;8.60;99.90
79439;DHT22;68889;48.232;10.110;2023-11-19T04:26:30;8.60;99.90
79439;DHT22;68889;48.232;10.110;2023-11-19T04:28:57;8.70;99.90
79439;DHT22;68889;48.232;10.110;2023-11-19T04:31:31;8.70;99.90
79439;DHT22;68889;48.232;10.110;2023-11-19T04:33:57;8.70;99.90
79439;DHT22;68889;48.232;10.110;2023-11-19T04:36:23;8.60;99.90
79439;DHT22;68889;48.232;10.110;2023-11-19T04:38:50;8.70;99.90
79439;DHT22;68889;48.232;10.110;2023-11-19T04:41:16;8.70;99.90
79439;DHT22;68889;48.232;10.110;2023-11-19T04:43:42;8.70;99.90
79439;DHT22;68889;48.232;10.110;2023-11-19T04:46:10;8.70;99.90
79439;DHT22;68889;48.232;10.110;2023-11-19T04:48:36;8.70;99.90
79439;DHT22;68889;48.232;10.110;2023-11-19T04:51:04;8.70;99.90
79439;DHT22;68889;48.232;10.110;2023-11-19T04:53:31;8.70;99.90
79439;DHT22;68889;48.232;10.110;2023-11-19T04:55:57;8.70;99.90
79439;DHT22;68889;48.232;10.110;2023-11-19T04:58:22;8.70;99.90
79439;DHT22;68889;48.232;10.110;2023-11-19T05:00:48;8.80;99.90
79439;DHT22;68889;48.232;10.110;2023-11-19T05:03:13;8.80;99.90
79439;DHT22;68889;48.232;10.110;2023-11-19T05:05:39;8.80;99.90
79439;DHT22;68889;48.232;10.110;2023-11-19T05:08:05;8.80;99.90
79439;DHT22;68889;48.232;10.110;2023-11-19T05:10:30;8.80;99.90
79439;DHT22;68889;48.232;10.110;2023-11-19T05:12:56;8.80;99.90
79439;DHT22;68889;48.232;10.110;2023-11-19T05:15:23;8.80;99.90
79439;DHT22;68889;48.232;10.110;2023-11-19T05:17:49;8.80;99.90
79439;DHT22;68889;48.232;10.110;2023-11-19T05:20:14;8.80;99.90
79439;DHT22;68889;48.232;10.110;2023-11-19T05:22:41;8.80;99.90
79439;DHT22;68889;48.232;10.110;2023-11-19T05:25:07;8.80;99.90
79439;DHT22;68889;48.232;10.110;2023-11-19T05:27:37;8.80;99.90
79439;DHT22;68889;48.232;10.110;2023-11-19T05:30:04;8.90;99.90
79439;DHT22;68889;48.232;10.110;2023-11-19T05:32:33;8.90;99.90
79439;DHT22;68889;48.232;10.110;2023-11-19T05:34:58;8.90;99.90
79439;DHT22;68889;48.232;10.110;2023-11-19T05:37:24;8.90;99.90
79439;DHT22;68889;48.232;10.110;2023-11-19T05:39:50;8.90;99.90
79439;DHT22;68889;48.232;10.110;2023-11-19T05:42:16;9.00;99.90
79439;DHT22;68889;48.232;10.110;2023-11-19T05:44:42;9.00;99.90
79439;DHT22;68889;48.232;10.110;2023-11-19T05:47:08;9.00;99.90
79439;DHT22;68889;48.232;10.110;2023-11-19T05:49:34;9.00;99.90
79439;DHT22;68889;48.232;10.110;2023-11-19T05:52:00;9.00;99.90
79439;DHT22;68889;48.232;10.110;2023-11-19T05:54:29;9.10;99.90
79439;DHT22;68889;48.232;10.110;2023-11-19T05:56:55;9.10;99.90
79439;DHT22;68889;48.232;10.110;2023-11-19T05:59:22;9.10;99.90
79439;DHT22;68889;48.232;10.110;2023-11-19T06:01:49;9.20;99.90
79439;DHT22;68889;48.232;10.110;2023-11-19T06:04:15;9.20;99.90
79439;DHT22;68889;48.232;10.110;2023-11-19T06:06:41;9.20;99.90
79439;DHT22;68889;48.232;10.110;2023-11-19T06:09:07;9.20;99.90
79439;DHT22;68889;48.232;10.110;2023-11-19T06:11:35;9.20;99.90
79439;DHT22;68889;48.232;10.110;2023-11-19T06:14:02;9.20;99.90
79439;DHT22;68889;48.232;10.110;2023-11-19T06:16:28;9.30;99.90
79439;DHT22;68889;48.232;10.110;2023-11-19T06:18:54;9.30;99.90
79439;DHT22;68889;48.232;10.110;2023-11-19T06:21:20;9.30;99.90
79439;DHT22;68889;48.232;10.110;2023-11-19T06:23:46;9.30;99.90
79439;DHT22;68889;48.232;10.110;2023-11-19T06:26:11;9.30;99.90
79439;DHT22;68889;48.232;10.110;2023-11-19T06:28:37;9.30;99.90
79439;DHT22;68889;48.232;10.110;2023-11-19T06:31:06;9.30;99.90
79439;DHT22;68889;48.232;10.110;2023-11-19T06:33:32;9.40;99.90
79439;DHT22;68889;48.232;10.110;2023-11-19T06:35:58;9.40;99.90
79439;DHT22;68889;48.232;10.110;2023-11-19T06:38:25;9.40;99.90
79439;DHT22;68889;48.232;10.110;2023-11-19T06:40:50;9.50;99.90
79439;DHT22;68889;48.232;10.110;2023-11-19T06:43:16;9.50;99.90
79439;DHT22;68889;48.232;10.110;2023-11-19T06:45:42;9.50;99.90
79439;DHT22;68889;48.232;10.110;2023-11-19T06:48:07;9.60;99.90
79439;DHT22;68889;48.232;10.110;2023-11-19T06:50:33;9.60;99.90
79439;DHT22;68889;48.232;10.110;2023-11-19T06:53:00;9.70;99.90
79439;DHT22;68889;48.232;10.110;2023-11-19T06:55:26;9.70;99.90
79439;DHT22;68889;48.232;10.110;2023-11-19T06:57:53;9.80;99.90
79439;DHT22;68889;48.232;10.110;2023-11-19T07:00:19;9.80;99.90
79439;DHT22;68889;48.232;10.110;2023-11-19T07:02:45;9.80;99.90
79439;DHT22;68889;48.232;10.110;2023-11-19T07:05:11;9.90;99.90
79439;DHT22;68889;48.232;10.110;2023-11-19T07:07:38;9.90;99.90
79439;DHT22;68889;48.232;10.110;2023-11-19T07:10:06;9.90;99.90
79439;DHT22;68889;48.232;10.110;2023-11-19T07:12:34;9.90;99.90
79439;DHT22;68889;48.232;10.110;2023-11-19T07:15:01;10.00;99.90
79439;DHT22;68889;48.232;10.110;2023-11-19T07:17:29;10.00;99.90
79439;DHT22;68889;48.232;10.110;2023-11-19T07:19:55;10.10;99.90
79439;DHT22;68889;48.232;10.110;2023-11-19T07:22:24;10.10;99.90
79439;DHT22;68889;48.232;10.110;2023-11-19T07:24:50;10.10;99.90
79439;DHT22;68889;48.232;10.110;2023-11-19T07:27:16;10.10;99.90
79439;DHT22;68889;48.232;10.110;2023-11-19T07:29:43;10.10;99.90
79439;DHT22;68889;48.232;10.110;2023-11-19T07:32:09;10.10;99.90
79439;DHT22;68889;48.232;10.110;2023-11-19T07:34:34;10.20;99.90
79439;DHT22;68889;48.232;10.110;2023-11-19T07:37:00;10.20;99.90
79439;DHT22;68889;48.232;10.110;2023-11-19T07:39:28;10.20;99.90
79439;DHT22;68889;48.232;10.110;2023-11-19T07:41:54;10.30;99.90
79439;DHT22;68889;48.232;10.110;2023-11-19T07:44:20;10.30;99.90
79439;DHT22;68889;48.232;10.110;2023-11-19T07:46:47;10.40;99.90
79439;DHT22;68889;48.232;10.110;2023-11-19T07:49:14;10.40;99.90
79439;DHT22;68889;48.232;10.110;2023-11-19T07:51:39;10.40;99.90
79439;DHT22;68889;48.232;10.110;2023-11-19T07:54:05;10.40;99.90
79439;DHT22;68889;48.232;10.110;2023-11-19T07:56:33;10.50;99.90
79439;DHT22;68889;48.232;10.110;2023-11-19T07:59:03;10.50;99.90
79439;DHT22;68889;48.232;10.110;2023-11-19T08:01:29;10.60;99.90
79439;DHT22;68889;48.232;10.110;2023-11-19T08:03:55;10.60;99.90
79439;DHT22;68889;48.232;10.110;2023-11-19T08:06:20;10.70;99.90
79439;DHT22;68889;48.232;10.110;2023-11-19T08:08:46;10.70;99.90
79439;DHT22;68889;48.232;10.110;2023-11-19T08:11:13;10.70;99.90
79439;DHT22;68889;48.232;10.110;2023-11-19T08:13:39;10.80;99.90
79439;DHT22;68889;48.232;10.110;2023-11-19T08:16:05;10.80;99.90
79439;DHT22;68889;48.232;10.110;2023-11-19T08:18:31;10.80;99.90
79439;DHT22;68889;48.232;10.110;2023-11-19T08:20:57;10.90;99.90
79439;DHT22;68889;48.232;10.110;2023-11-19T08:23:24;11.00;99.90
79439;DHT22;68889;48.232;10.110;2023-11-19T08:25:53;11.00;99.90
79439;DHT22;68889;48.232;10.110;2023-11-19T08:28:18;11.10;99.90
79439;DHT22;68889;48.232;10.110;2023-11-19T08:30:44;11.20;99.90
79439;DHT22;68889;48.232;10.110;2023-11-19T08:33:10;11.20;99.90
79439;DHT22;68889;48.232;10.110;2023-11-19T08:35:36;11.30;99.90
79439;DHT22;68889;48.232;10.110;2023-11-19T08:38:01;11.30;99.90
79439;DHT22;68889;48.232;10.110;2023-11-19T08:40:28;11.30;99.90
79439;DHT22;68889;48.232;10.110;2023-11-19T08:42:55;11.30;99.90
79439;DHT22;68889;48.232;10.110;2023-11-19T08:45:22;11.30;99.90
79439;DHT22;68889;48.232;10.110;2023-11-19T08:47:47;11.30;99.90
79439;DHT22;68889;48.232;10.110;2023-11-19T08:50:13;11.30;99.90
79439;DHT22;68889;48.232;10.110;2023-11-19T08:52:40;11.30;99.90
79439;DHT22;68889;48.232;10.110;2023-11-19T08:55:05;11.30;99.90
79439;DHT22;68889;48.232;10.110;2023-11-19T08:57:33;11.30;99.90
79439;DHT22;68889;48.232;10.110;2023-11-19T08:59:59;11.40;99.90
79439;DHT22;68889;48.232;10.110;2023-11-19T09:02:24;11.40;99.90
79439;DHT22;68889;48.232;10.110;2023-11-19T09:04:50;11.40;99.90
79439;DHT22;68889;48.232;10.110;2023-11-19T09:07:16;11.40;99.90
79439;DHT22;68889;48.232;10.110;2023-11-19T09:09:41;11.40;99.90
79439;DHT22;68889;48.232;10.110;2023-11-19T09:12:07;11.40;99.90
79439;DHT22;68889;48.232;10.110;2023-11-19T09:14:33;11.50;99.90
79439;DHT22;68889;48.232;10.110;2023-11-19T09:16:59;11.50;99.90
79439;DHT22;68889;48.232;10.110;2023-11-19T09:19:25;11.50;99.90
79439;DHT22;68889;48.232;10.110;2023-11-19T09:21:52;11.50;99.90
79439;DHT22;68889;48.232;10.110;2023-11-19T09:24:18;11.50;99.90
79439;DHT22;68889;48.232;10.110;2023-11-19T09:26:45;11.60;99.90
79439;DHT22;68889;48.232;10.110;2023-11-19T09:29:11;11.70;99.90
79439;DHT22;68889;48.232;10.110;2023-11-19T09:31:40;11.70;99.90
79439;DHT22;68889;48.232;10.110;2023-11-19T09:34:06;11.80;99.90
79439;DHT22;68889;48.232;10.110;2023-11-19T09:36:31;11.90;99.90
79439;DHT22;68889;48.232;10.110;2023-11-19T09:38:58;11.90;99.90
79439;DHT22;68889;48.232;10.110;2023-11-19T09:41:26;11.90;99.90
79439;DHT22;68889;48.232;10.110;2023-11-19T09:43:53;11.90;99.90
79439;DHT22;68889;48.232;10.110;2023-11-19T09:46:19;12.00;99.90
79439;DHT22;68889;48.232;10.110;2023-11-19T09:48:45;12.00;99.90
79439;DHT22;68889;48.232;10.110;2023-11-19T09:51:11;12.10;99.90
79439;DHT22;68889;48.232;10.110;2023-11-19T09:53:38;12.10;99.90
79439;DHT22;68889;48.232;10.110;2023-11-19T09:56:06;12.10;99.90
79439;DHT22;68889;48.232;10.110;2023-11-19T09:58:38;12.10;99.90
79439;DHT22;68889;48.232;10.110;2023-11-19T10:01:04;12.20;99.90
79439;DHT22;68889;48.232;10.110;2023-11-19T10:03:33;12.30;99.90
79439;DHT22;68889;48.232;10.110;2023-11-19T10:06:11;12.40;99.90
79439;DHT22;68889;48.232;10.110;2023-11-19T10:08:37;12.50;99.90
79439;DHT22;68889;48.232;10.110;2023-11-19T10:11:06;12.80;99.10
79439;DHT22;68889;48.232;10.110;2023-11-19T10:13:35;13.00;98.80
79439;DHT22;68889;48.232;10.110;2023-11-19T10:16:07;13.00;98.30
79439;DHT22;68889;48.232;10.110;2023-11-19T10:18:34;13.00;98.20
79439;DHT22;68889;48.232;10.110;2023-11-19T10:21:04;13.10;97.80
79439;DHT22;68889;48.232;10.110;2023-11-19T10:23:31;13.10;98.70
79439;DHT22;68889;48.232;10.110;2023-11-19T10:26:03;13.10;98.30
79439;DHT22;68889;48.232;10.110;2023-11-19T10:28:40;13.10;97.70
79439;DHT22;68889;48.232;10.110;2023-11-19T10:31:12;13.20;98.30
79439;DHT22;68889;48.232;10.110;2023-11-19T10:33:38;13.30;97.40
79439;DHT22;68889;48.232;10.110;2023-11-19T10:36:04;13.30;97.50
79439;DHT22;68889;48.232;10.110;2023-11-19T10:38:30;13.20;96.80
79439;DHT22;68889;48.232;10.110;2023-11-19T10:40:56;13.40;97.70
79439;DHT22;68889;48.232;10.110;2023-11-19T10:43:22;13.70;96.20
79439;DHT22;68889;48.232;10.110;2023-11-19T10:45:49;13.80;96.00
79439;DHT22;68889;48.232;10.110;2023-11-19T10:48:16;13.60;95.90
79439;DHT22;68889;48.232;10.110;2023-11-19T10:50:43;13.50;96.10
79439;DHT22;68889;48.232;10.110;2023-11-19T10:53:11;13.40;96.90
79439;DHT22;68889;48.232;10.110;2023-11-19T10:55:41;13.50;97.00
79439;DHT22;68889;48.232;10.110;2023-11-19T10:58:08;13.60;96.90
79439;DHT22;68889;48.232;10.110;2023-11-19T11:00:48;13.70;96.30
79439;DHT22;68889;48.232;10.110;2023-11-19T11:03:20;13.60;96.20
79439;DHT22;68889;48.232;10.110;2023-11-19T11:05:50;13.50;96.80
79439;DHT22;68889;48.232;10.110;2023-11-19T11:08:18;13.50;96.50
79439;DHT22;68889;48.232;10.110;2023-11-19T11:10:57;13.50;96.70
79439;DHT22;68889;48.232;10.110;2023-11-19T11:13:27;13.50;96.80
79439;DHT22;68889;48.232;10.110;2023-11-19T11:15:57;13.60;97.00
79439;DHT22;68889;48.232;10.110;2023-11-19T11:18:24;13.80;96.00
79439;DHT22;68889;48.232;10.110;2023-11-19T11:21:01;14.00;95.90
79439;DHT22;68889;48.232;10.110;2023-11-19T11:32:15;14.50;93.70
79439;DHT22;68889;48.232;10.110;2023-11-19T11:37:47;14.70;93.00
79439;DHT22;68889;48.232;10.110;2023-11-19T11:40:16;15.00;92.80
79439;DHT22;68889;48.232;10.110;2023-11-19T11:42:45;15.00;91.90
79439;DHT22;68889;48.232;10.110;2023-11-19T11:45:12;15.10;91.90
79439;DHT22;68889;48.232;10.110;2023-11-19T11:50:20;15.40;91.50
79439;DHT22;68889;48.232;10.110;2023-11-19T11:55:27;15.40;91.00
79439;DHT22;68889;48.232;10.110;2023-11-19T11:57:54;15.30;91.00
79439;DHT22;68889;48.232;10.110;2023-11-19T12:03:00;15.40;90.90
79439;DHT22;68889;48.232;10.110;2023-11-19T12:05:26;15.30;90.90
79439;DHT22;68889;48.232;10.110;2023-11-19T12:08:00;15.10;91.00
79439;DHT22;68889;48.232;10.110;2023-11-19T12:10:29;14.90;91.60
79439;DHT22;68889;48.232;10.110;2023-11-19T12:13:06;15.00;91.80
79439;DHT22;68889;48.232;10.110;2023-11-19T12:15:32;15.00;92.00
79439;DHT22;68889;48.232;10.110;2023-11-19T12:17:58;15.00;91.60
79439;DHT22;68889;48.232;10.110;2023-11-19T12:20:26;15.00;92.10
79439;DHT22;68889;48.232;10.110;2023-11-19T12:22:53;15.00;92.00
79439;DHT22;68889;48.232;10.110;2023-11-19T12:25:19;15.00;92.20
79439;DHT22;68889;48.232;10.110;2023-11-19T12:27:47;15.00;91.70
79439;DHT22;68889;48.232;10.110;2023-11-19T12:30:19;15.10;91.40
79439;DHT22;68889;48.232;10.110;2023-11-19T12:32:46;15.10;91.70
79439;DHT22;68889;48.232;10.110;2023-11-19T12:35:14;15.10;90.80
79439;DHT22;68889;48.232;10.110;2023-11-19T12:37:45;15.00;91.20
79439;DHT22;68889;48.232;10.110;2023-11-19T12:40:24;15.10;91.60
79439;DHT22;68889;48.232;10.110;2023-11-19T12:42:55;15.10;90.10
79439;DHT22;68889;48.232;10.110;2023-11-19T12:45:21;15.00;90.50
79439;DHT22;68889;48.232;10.110;2023-11-19T12:47:49;15.00;91.20
79439;DHT22;68889;48.232;10.110;2023-11-19T12:50:16;15.00;91.60
79439;DHT22;68889;48.232;10.110;2023-11-19T12:53:05;15.00;91.20
79439;DHT22;68889;48.232;10.110;2023-11-19T12:55:31;15.10;91.30
79439;DHT22;68889;48.232;10.110;2023-11-19T12:57:58;15.20;90.50
79439;DHT22;68889;48.232;10.110;2023-11-19T13:00:26;15.20;91.40
79439;DHT22;68889;48.232;10.110;2023-11-19T13:02:56;15.30;90.60
79439;DHT22;68889;48.232;10.110;2023-11-19T13:05:34;15.40;91.00
79439;DHT22;68889;48.232;10.110;2023-11-19T13:08:03;15.50;90.30
79439;DHT22;68889;48.232;10.110;2023-11-19T13:10:45;15.50;90.00
79439;DHT22;68889;48.232;10.110;2023-11-19T13:13:16;15.50;89.70
79439;DHT22;68889;48.232;10.110;2023-11-19T13:15:42;15.60;90.00
79439;DHT22;68889;48.232;10.110;2023-11-19T13:18:10;15.60;89.70
79439;DHT22;68889;48.232;10.110;2023-11-19T13:20:36;15.70;90.10
79439;DHT22;68889;48.232;10.110;2023-11-19T13:23:05;15.80;87.70
79439;DHT22;68889;48.232;10.110;2023-11-19T13:25:32;15.80;88.30
79439;DHT22;68889;48.232;10.110;2023-11-19T13:27:58;15.80;88.40
79439;DHT22;68889;48.232;10.110;2023-11-19T13:30:24;15.80;88.30
79439;DHT22;68889;48.232;10.110;2023-11-19T13:32:55;15.70;88.20
79439;DHT22;68889;48.232;10.110;2023-11-19T13:35:22;15.40;88.50
79439;DHT22;68889;48.232;10.110;2023-11-19T13:37:53;15.20;89.80
79439;DHT22;68889;48.232;10.110;2023-11-19T13:40:19;15.20;89.50
79439;DHT22;68889;48.232;10.110;2023-11-19T13:42:45;15.40;90.20
79439;DHT22;68889;48.232;10.110;2023-11-19T13:45:13;15.50;89.70
79439;DHT22;68889;48.232;10.110;2023-11-19T13:47:44;15.50;90.00
79439;DHT22;68889;48.232;10.110;2023-11-19T13:50:14;15.40;88.60
79439;DHT22;68889;48.232;10.110;2023-11-19T13:52:42;15.30;89.40
79439;DHT22;68889;48.232;10.110;2023-11-19T13:55:09;15.30;89.40
79439;DHT22;68889;48.232;10.110;2023-11-19T13:57:39;15.20;89.50
79439;DHT22;68889;48.232;10.110;2023-11-19T14:00:08;15.20;89.90
79439;DHT22;68889;48.232;10.110;2023-11-19T14:02:42;15.10;90.10
79439;DHT22;68889;48.232;10.110;2023-11-19T14:05:09;15.00;89.90
79439;DHT22;68889;48.232;10.110;2023-11-19T14:07:36;15.00;89.90
79439;DHT22;68889;48.232;10.110;2023-11-19T14:10:03;15.00;90.40
79439;DHT22;68889;48.232;10.110;2023-11-19T14:12:31;15.00;90.00
79439;DHT22;68889;48.232;10.110;2023-11-19T14:14:58;15.00;90.10
79439;DHT22;68889;48.232;10.110;2023-11-19T14:17:25;15.00;90.20
79439;DHT22;68889;48.232;10.110;2023-11-19T14:19:51;15.00;90.00
79439;DHT22;68889;48.232;10.110;2023-11-19T14:22:17;14.90;90.20
79439;DHT22;68889;48.232;10.110;2023-11-19T14:24:43;14.80;90.80
79439;DHT22;68889;48.232;10.110;2023-11-19T14:27:09;14.70;90.80
79439;DHT22;68889;48.232;10.110;2023-11-19T14:29:36;14.60;90.80
79439;DHT22;68889;48.232;10.110;2023-11-19T14:32:02;14.50;90.70
79439;DHT22;68889;48.232;10.110;2023-11-19T14:34:29;14.40;91.20
79439;DHT22;68889;48.232;10.110;2023-11-19T14:36:55;14.30;91.80
79439;DHT22;68889;48.232;10.110;2023-11-19T14:39:21;14.20;91.90
79439;DHT22;68889;48.232;10.110;2023-11-19T14:41:46;14.20;91.80
79439;DHT22;68889;48.232;10.110;2023-11-19T14:44:13;14.10;92.10
79439;DHT22;68889;48.232;10.110;2023-11-19T14:46:38;14.00;92.50
79439;DHT22;68889;48.232;10.110;2023-11-19T14:49:05;13.90;92.80
79439;DHT22;68889;48.232;10.110;2023-11-19T14:51:33;13.80;93.00
79439;DHT22;68889;48.232;10.110;2023-11-19T14:54:00;13.60;93.60
79439;DHT22;68889;48.232;10.110;2023-11-19T14:56:26;13.50;94.20
79439;DHT22;68889;48.232;10.110;2023-11-19T14:58:53;13.50;94.40
79439;DHT22;68889;48.232;10.110;2023-11-19T15:01:19;13.40;94.30
79439;DHT22;68889;48.232;10.110;2023-11-19T15:03:45;13.30;94.70
79439;DHT22;68889;48.232;10.110;2023-11-19T15:06:10;13.30;94.90
79439;DHT22;68889;48.232;10.110;2023-11-19T15:08:37;13.20;95.20
79439;DHT22;68889;48.232;10.110;2023-11-19T15:11:03;13.20;95.30
79439;DHT22;68889;48.232;10.110;2023-11-19T15:13:30;13.10;95.70
79439;DHT22;68889;48.232;10.110;2023-11-19T15:15:56;13.00;96.20
79439;DHT22;68889;48.232;10.110;2023-11-19T15:18:22;12.90;96.50
79439;DHT22;68889;48.232;10.110;2023-11-19T15:20:48;12.90;96.60
79439;DHT22;68889;48.232;10.110;2023-11-19T15:23:14;12.80;96.80
79439;DHT22;68889;48.232;10.110;2023-11-19T15:25:41;12.70;97.30
79439;DHT22;68889;48.232;10.110;2023-11-19T15:28:07;12.60;97.60
79439;DHT22;68889;48.232;10.110;2023-11-19T15:30:33;12.60;97.80
79439;DHT22;68889;48.232;10.110;2023-11-19T15:32:59;12.50;98.00
79439;DHT22;68889;48.232;10.110;2023-11-19T15:35:24;12.50;98.10
79439;DHT22;68889;48.232;10.110;2023-11-19T15:37:51;12.40;98.20
79439;DHT22;68889;48.232;10.110;2023-11-19T15:40:17;12.40;98.50
79439;DHT22;68889;48.232;10.110;2023-11-19T15:42:43;12.40;98.50
79439;DHT22;68889;48.232;10.110;2023-11-19T15:45:10;12.40;98.40